Hovedside
METAR-TAF:

METAR-TAF

Lufthavner :

Bromma lufthavn

Stockholm, Sverige

breddegrad: 59-21N, lengdegrad: 017-57E, høyde over havet: 14 m

Gjeldene værobservasjon

Denne rapporten ble laget for 19 minutter siden, klokken 14:20 UTC
Vind 10 kt fra Øst-nordøst
Temperatur 29°C
Luftfuktighet 33%
Trykk 1013 hPa
Sikt 10 km eller mer
ingen skyer under 1500 m og ingen bygeskyer

METAR: ESSB 181420Z 07010KT CAVOK 29/11 Q1013

Tid: 16:39 (14:39 UTC)

Varsel

Denne rapporten ble laget for 9 minutter siden, klokken 14:30 UTC
Varsel gyldig fra 18. klokken 15 UTC til 18. klokken 20 UTC
Vind 10 kt fra Øst
Sikt 10 km eller mer
ingen skyer under 1500 m og ingen bygeskyer

TAF: ESSB 181430Z 1815/1820 10010KT CAVOK

Værobservasjoner og værvarsel for over 4000 flyplasser (METAR- og TAF-rapporter).

Tilgjengelige stasjoner er representert av de røde og gule prikkene på kartet.

Hold musepekeren over prikken for å se navnet på stasjonen.

Klikk så for å se værobservasjoner og -varsler.

For å forandre kartet kan du klikke på den grønne knappen med svart kryss for å zoome inn, på den grønne knappen med strek for å zoome ut, eller på de grønne pilene for å se tilstøtende kart.


METAR-TAF: